Time;durP1;ratioP1;P1;durP2;ratioP2;P2;SDS_P1;SDS_P2;PMS_P1;PMS_P2;Temp;Humidity;BMP_temperature;BMP_pressure;BME280_temperature;BME280_humidity;BME280_pressure;Samples;Min_cycle;Max_cycle;Signal;HPM_P1;HPM_P2
2021/07/05 00:01:06;;;;;;;16.35;6.00;;;16.20;99.90;;;;;;4842812;29;20065;-86
2021/07/05 00:03:34;;;;;;;21.42;6.85;;;16.20;99.90;;;;;;4824121;29;20061;-86
2021/07/05 00:06:02;;;;;;;17.02;7.20;;;16.20;99.90;;;;;;4820521;29;20419;-87
2021/07/05 00:08:31;;;;;;;26.70;7.07;;;15.90;99.90;;;;;;4843698;29;20049;-88
2021/07/05 00:10:59;;;;;;;21.52;8.13;;;16.20;99.90;;;;;;4850660;29;20490;-86
2021/07/05 00:13:27;;;;;;;29.70;8.18;;;16.20;99.90;;;;;;4836832;29;20422;-86
2021/07/05 00:15:55;;;;;;;35.95;8.05;;;16.20;99.90;;;;;;4836940;29;20068;-89
2021/07/05 00:18:23;;;;;;;21.88;6.65;;;16.20;99.90;;;;;;4835819;29;20057;-87
2021/07/05 00:20:51;;;;;;;22.65;6.50;;;16.20;99.90;;;;;;4836855;29;20054;-88
2021/07/05 00:23:19;;;;;;;20.25;6.40;;;16.20;99.90;;;;;;4831335;29;20046;-86
2021/07/05 00:25:49;;;;;;;23.48;7.75;;;16.20;99.90;;;;;;4833004;29;20042;-84
2021/07/05 00:28:17;;;;;;;29.67;8.80;;;16.20;99.90;;;;;;4853594;29;20046;-84
2021/07/05 00:30:45;;;;;;;29.42;9.23;;;16.20;99.90;;;;;;4830762;29;20057;-86
2021/07/05 00:33:14;;;;;;;26.27;8.63;;;16.20;99.90;;;;;;4837754;29;20050;-88
2021/07/05 00:35:42;;;;;;;23.60;6.20;;;16.20;99.90;;;;;;4837086;29;20046;-87
2021/07/05 00:38:14;;;;;;;24.92;6.95;;;16.10;99.90;;;;;;4834951;29;20046;-85
2021/07/05 00:40:42;;;;;;;23.05;7.72;;;16.10;99.90;;;;;;4836582;29;20057;-85
2021/07/05 00:43:10;;;;;;;18.58;7.38;;;16.10;99.90;;;;;;4835338;29;20050;-85
2021/07/05 00:45:38;;;;;;;16.70;5.55;;;16.10;99.90;;;;;;4835487;29;20045;-85
2021/07/05 00:48:06;;;;;;;42.78;7.90;;;16.10;99.90;;;;;;4835276;29;20410;-86
2021/07/05 00:50:34;;;;;;;18.27;7.22;;;16.00;99.90;;;;;;4836335;29;20064;-86
2021/07/05 00:53:03;;;;;;;21.67;7.25;;;16.00;99.90;;;;;;4836223;29;20058;-86
2021/07/05 00:55:32;;;;;;;20.10;6.70;;;16.00;99.90;;;;;;4840053;29;20065;-86
2021/07/05 00:58:01;;;;;;;21.98;7.20;;;16.00;99.90;;;;;;4839940;29;20498;-85
2021/07/05 01:00:29;;;;;;;21.70;7.20;;;16.00;99.90;;;;;;4837889;29;20060;-88
2021/07/05 01:02:57;;;;;;;22.17;7.15;;;16.00;99.90;;;;;;4831540;29;20050;-87
2021/07/05 01:05:25;;;;;;;24.58;8.10;;;16.00;99.90;;;;;;4837245;29;20660;-87
2021/07/05 01:07:53;;;;;;;27.00;8.88;;;16.00;99.90;;;;;;4851155;29;20061;-86
2021/07/05 01:10:22;;;;;;;22.35;7.32;;;16.00;99.90;;;;;;4837623;29;20074;-88
2021/07/05 01:12:52;;;;;;;27.55;8.52;;;16.00;99.90;;;;;;4818847;29;20057;-86
2021/07/05 01:15:32;;;;;;;37.63;8.70;;;15.90;99.90;;;;;;4805983;29;20054;-86
2021/07/05 01:18:04;;;;;;;25.73;7.22;;;15.90;99.90;;;;;;4842091;29;20057;-86
2021/07/05 01:20:35;;;;;;;24.50;8.07;;;15.90;99.90;;;;;;4838632;29;20057;-85
2021/07/05 01:23:07;;;;;;;22.48;7.10;;;15.90;99.90;;;;;;4838634;29;20050;-86
2021/07/05 01:25:38;;;;;;;26.75;9.15;;;15.90;99.90;;;;;;4840718;29;20493;-87
2021/07/05 01:28:07;;;;;;;24.08;7.07;;;17.20;99.90;;;;;;4836210;29;20716;-87
2021/07/05 01:30:35;;;;;;;24.17;7.28;;;15.90;99.90;;;;;;4853219;29;20050;-86
2021/07/05 01:33:06;;;;;;;27.58;8.05;;;15.90;99.90;;;;;;4838720;29;20406;-87
2021/07/05 01:35:35;;;;;;;31.25;7.50;;;15.90;99.90;;;;;;4838931;29;20061;-85
2021/07/05 01:38:13;;;;;;;26.67;8.10;;;15.90;99.90;;;;;;4823569;29;20054;-86
2021/07/05 01:43:50;;;;;;;19.33;7.78;;;15.90;99.90;;;;;;5119824;23;19933;-86
2021/07/05 01:46:18;;;;;;;33.28;8.07;;;15.90;99.90;;;;;;4839513;29;20061;-85
2021/07/05 01:48:48;;;;;;;16.33;7.20;;;15.90;99.90;;;;;;4843436;29;20050;-85
2021/07/05 01:51:16;;;;;;;24.42;7.10;;;15.90;99.90;;;;;;4840013;29;20054;-86
2021/07/05 01:53:44;;;;;;;18.75;6.20;;;15.90;99.90;;;;;;4826121;29;20054;-85
2021/07/05 01:56:12;;;;;;;21.85;8.57;;;15.90;99.90;;;;;;4828238;29;20047;-87
2021/07/05 01:58:40;;;;;;;16.40;6.70;;;15.90;99.90;;;;;;4824767;29;20054;-85
2021/07/05 02:01:08;;;;;;;23.45;7.95;;;15.90;99.90;;;;;;4839334;29;20414;-88
2021/07/05 02:03:35;;;;;;;27.63;8.25;;;15.80;99.90;;;;;;4826176;29;20061;-84
2021/07/05 02:06:03;;;;;;;23.25;6.38;;;15.80;99.90;;;;;;4824513;29;20491;-87
2021/07/05 02:08:31;;;;;;;29.05;7.10;;;15.80;99.90;;;;;;4825364;29;20065;-85
2021/07/05 02:10:59;;;;;;;16.60;6.25;;;15.80;99.90;;;;;;4829932;29;20057;-85
2021/07/05 02:13:30;;;;;;;17.70;7.63;;;15.80;99.90;;;;;;4834905;29;20058;-84
2021/07/05 02:16:00;;;;;;;32.67;8.90;;;15.70;99.90;;;;;;4820078;29;20482;-86
2021/07/05 02:18:29;;;;;;;24.23;8.23;;;15.70;99.90;;;;;;4844988;29;20058;-87
2021/07/05 02:21:08;;;;;;;24.80;6.22;;;15.70;99.90;;;;;;4843266;29;20046;-86
2021/07/05 02:23:38;;;;;;;21.70;6.53;;;15.70;99.90;;;;;;4844062;29;20058;-86
2021/07/05 02:26:06;;;;;;;19.48;7.90;;;15.70;99.90;;;;;;4842801;29;20045;-86
2021/07/05 02:28:36;;;;;;;25.83;8.25;;;15.70;99.90;;;;;;4843469;29;20068;-87
2021/07/05 02:31:06;;;;;;;20.73;7.40;;;15.60;99.90;;;;;;4842292;29;20054;-85
2021/07/05 02:33:34;;;;;;;21.15;6.90;;;15.60;99.90;;;;;;4843022;29;20061;-85
2021/07/05 02:36:07;;;;;;;18.30;6.70;;;15.70;99.90;;;;;;4844178;29;20058;-87
2021/07/05 02:38:37;;;;;;;31.60;9.15;;;15.60;99.90;;;;;;4843668;29;20053;-87
2021/07/05 02:41:05;;;;;;;26.20;8.00;;;15.60;99.90;;;;;;4850052;29;20046;-85
2021/07/05 02:43:33;;;;;;;18.48;5.97;;;15.60;99.90;;;;;;4847000;29;20422;-87
2021/07/05 02:46:02;;;;;;;21.17;6.65;;;15.60;99.90;;;;;;4845166;29;20054;-86
2021/07/05 02:48:32;;;;;;;18.33;6.50;;;15.60;99.90;;;;;;4845212;29;20046;-85
2021/07/05 02:51:04;;;;;;;19.23;6.65;;;15.60;99.90;;;;;;4807723;29;20065;-86
2021/07/05 02:53:32;;;;;;;24.85;7.28;;;15.60;99.90;;;;;;4846268;29;20413;-88
2021/07/05 02:56:00;;;;;;;26.10;7.70;;;15.60;99.90;;;;;;4845713;29;20050;-86
2021/07/05 02:58:30;;;;;;;23.73;7.50;;;15.60;99.90;;;;;;4843774;29;20054;-88
2021/07/05 03:01:00;;;;;;;22.05;7.53;;;15.60;99.90;;;;;;4844307;29;20557;-89
2021/07/05 03:03:28;;;;;;;28.00;7.82;;;15.50;99.90;;;;;;4844189;29;20050;-88
2021/07/05 03:05:57;;;;;;;19.13;8.93;;;15.50;99.90;;;;;;4824496;29;20065;-87
2021/07/05 03:08:26;;;;;;;19.90;7.43;;;15.50;99.90;;;;;;4833243;29;20049;-87
2021/07/05 03:10:54;;;;;;;21.05;7.97;;;15.60;99.90;;;;;;4846042;29;20069;-86
2021/07/05 03:13:22;;;;;;;23.98;7.45;;;15.50;99.90;;;;;;4825676;29;20053;-85
2021/07/05 03:15:52;;;;;;;36.72;8.60;;;15.50;99.90;;;;;;4831639;29;20061;-86
2021/07/05 03:18:20;;;;;;;24.88;8.07;;;15.50;99.90;;;;;;4840904;29;20053;-86
2021/07/05 03:20:50;;;;;;;22.13;7.55;;;15.50;99.90;;;;;;4842334;29;20062;-86
2021/07/05 03:23:25;;;;;;;16.73;6.97;;;15.50;99.90;;;;;;4841761;29;20050;-85
2021/07/05 03:25:54;;;;;;;30.63;7.35;;;14.40;99.90;;;;;;4842542;29;20046;-86
2021/07/05 03:28:23;;;;;;;23.75;7.28;;;15.50;99.90;;;;;;4841206;29;20069;-85
2021/07/05 03:30:53;;;;;;;22.13;7.18;;;15.50;99.90;;;;;;4841985;29;20054;-86
2021/07/05 03:33:21;;;;;;;13.10;6.60;;;15.50;99.90;;;;;;4821009;29;20050;-86
2021/07/05 03:35:50;;;;;;;23.92;8.68;;;15.50;99.90;;;;;;4823112;29;20398;-85
2021/07/05 03:38:19;;;;;;;25.80;6.97;;;15.50;99.90;;;;;;4822148;29;20046;-86
2021/07/05 03:40:47;;;;;;;21.80;6.60;;;15.50;99.90;;;;;;4822618;29;20064;-85
2021/07/05 03:43:16;;;;;;;23.73;9.30;;;15.50;99.90;;;;;;4823356;29;20394;-85
2021/07/05 03:45:44;;;;;;;25.77;7.68;;;15.50;99.90;;;;;;4824394;29;20057;-86
2021/07/05 03:48:13;;;;;;;20.25;8.00;;;15.40;99.90;;;;;;4841785;29;20054;-86
2021/07/05 03:50:41;;;;;;;24.02;7.75;;;15.50;99.90;;;;;;4841411;29;20049;-85
2021/07/05 03:53:09;;;;;;;19.58;6.65;;;15.40;99.90;;;;;;4823791;29;20502;-86
2021/07/05 03:55:37;;;;;;;34.65;10.05;;;15.40;99.90;;;;;;4824948;29;20050;-86
2021/07/05 03:58:06;;;;;;;29.92;8.60;;;15.40;99.90;;;;;;4819803;29;20056;-86
2021/07/05 04:00:37;;;;;;;23.17;10.88;;;15.40;99.90;;;;;;4824747;29;20050;-85
2021/07/05 04:03:07;;;;;;;27.50;7.78;;;15.40;99.90;;;;;;4841625;29;20080;-84
2021/07/05 04:05:35;;;;;;;23.92;7.15;;;15.40;99.90;;;;;;4842476;29;20062;-85
2021/07/05 04:08:04;;;;;;;20.98;7.38;;;15.30;99.90;;;;;;4844402;29;20045;-84
2021/07/05 04:10:32;;;;;;;23.02;7.20;;;15.30;99.90;;;;;;4842037;29;20058;-85
2021/07/05 04:13:05;;;;;;;21.35;7.10;;;15.30;99.90;;;;;;4811417;29;20050;-86
2021/07/05 04:15:34;;;;;;;24.13;9.55;;;15.30;99.90;;;;;;4853134;29;20506;-85
2021/07/05 04:18:03;;;;;;;21.73;8.07;;;15.30;99.90;;;;;;4835680;29;20065;-86
2021/07/05 04:20:31;;;;;;;23.08;8.73;;;15.30;99.90;;;;;;4847647;29;20053;-85
2021/07/05 04:22:59;;;;;;;28.83;7.60;;;15.30;99.90;;;;;;4854417;29;20192;-85
2021/07/05 04:25:27;;;;;;;21.23;8.45;;;15.40;99.90;;;;;;4845609;29;20061;-86
2021/07/05 04:27:55;;;;;;;20.33;7.57;;;15.30;99.90;;;;;;4829303;29;20054;-85
2021/07/05 04:30:27;;;;;;;21.05;8.43;;;15.30;99.90;;;;;;4844767;29;20061;-86
2021/07/05 04:32:56;;;;;;;21.23;8.27;;;15.20;99.90;;;;;;4845314;29;20053;-86
2021/07/05 04:35:25;;;;;;;20.38;6.90;;;15.30;99.90;;;;;;4845917;29;20053;-86
2021/07/05 04:37:54;;;;;;;32.45;8.52;;;15.20;99.90;;;;;;4843412;29;20058;-86
2021/07/05 04:40:33;;;;;;;17.17;8.40;;;15.20;99.90;;;;;;4827284;29;20058;-85
2021/07/05 04:43:02;;;;;;;22.40;8.13;;;16.30;99.90;;;;;;4824460;29;20063;-86
2021/07/05 04:45:32;;;;;;;26.67;7.90;;;15.20;99.90;;;;;;4829485;29;20057;-85
2021/07/05 04:48:03;;;;;;;26.95;8.40;;;15.30;99.90;;;;;;4845366;29;20049;-85
2021/07/05 04:50:32;;;;;;;19.53;8.30;;;15.20;99.90;;;;;;4846054;29;20427;-85
2021/07/05 04:53:04;;;;;;;24.92;7.47;;;15.20;99.90;;;;;;4847221;29;20525;-86
2021/07/05 04:55:32;;;;;;;28.48;9.68;;;15.20;99.90;;;;;;4848444;29;20057;-85
2021/07/05 04:58:01;;;;;;;28.17;7.93;;;15.30;99.90;;;;;;4846839;29;20058;-86
2021/07/05 05:00:32;;;;;;;28.52;8.30;;;15.30;99.90;;;;;;4829408;29;20584;-86
2021/07/05 05:03:04;;;;;;;20.60;8.38;;;15.30;99.90;;;;;;4847855;29;20626;-86
2021/07/05 05:05:33;;;;;;;26.65;7.82;;;15.30;99.90;;;;;;4846865;29;20065;-86
2021/07/05 05:08:07;;;;;;;23.90;9.73;;;15.30;99.90;;;;;;4848019;29;20046;-85
2021/07/05 05:10:36;;;;;;;26.80;8.05;;;15.30;99.90;;;;;;4830576;29;20065;-86
2021/07/05 05:13:05;;;;;;;29.20;8.25;;;15.30;99.90;;;;;;4845961;29;20057;-87
2021/07/05 05:15:33;;;;;;;15.43;7.50;;;15.30;99.90;;;;;;4830565;29;20421;-86
2021/07/05 05:18:01;;;;;;;28.55;8.25;;;15.30;99.90;;;;;;4830243;29;20057;-85
2021/07/05 05:20:30;;;;;;;24.50;9.57;;;15.30;99.90;;;;;;4845822;29;20057;-86
2021/07/05 05:22:58;;;;;;;25.77;8.55;;;15.30;99.90;;;;;;4846468;29;20058;-86
2021/07/05 05:25:27;;;;;;;26.23;9.68;;;15.40;99.90;;;;;;4845520;29;20062;-85
2021/07/05 05:27:55;;;;;;;18.05;6.90;;;15.30;99.90;;;;;;4835138;29;20065;-87
2021/07/05 05:30:24;;;;;;;20.95;7.57;;;15.30;99.90;;;;;;4827603;29;20610;-86
2021/07/05 05:32:58;;;;;;;21.15;7.20;;;15.40;99.90;;;;;;4812531;29;20050;-85
2021/07/05 05:35:26;;;;;;;17.08;6.20;;;15.40;99.90;;;;;;4826908;29;20054;-85
2021/07/05 05:37:55;;;;;;;13.75;7.38;;;15.40;99.90;;;;;;4828520;29;20050;-86
2021/07/05 05:40:23;;;;;;;19.25;6.05;;;15.40;99.90;;;;;;4844296;29;20049;-86
2021/07/05 05:42:51;;;;;;;24.35;6.82;;;15.40;99.90;;;;;;4839481;29;20062;-86
2021/07/05 05:45:19;;;;;;;16.95;6.30;;;15.40;99.90;;;;;;4832332;29;20077;-87
2021/07/05 05:47:48;;;;;;;21.20;6.93;;;15.30;99.90;;;;;;4828367;29;20050;-86
2021/07/05 05:50:17;;;;;;;14.73;5.85;;;15.40;99.90;;;;;;4846023;29;20057;-85
2021/07/05 05:52:45;;;;;;;22.60;6.07;;;15.30;99.90;;;;;;4844415;29;20045;-86
2021/07/05 05:55:14;;;;;;;19.13;7.38;;;15.30;99.90;;;;;;4845277;29;20050;-86
2021/07/05 05:57:42;;;;;;;18.33;6.00;;;15.30;99.90;;;;;;4845630;29;20057;-86
2021/07/05 06:00:19;;;;;;;21.40;7.18;;;15.40;99.90;;;;;;4846396;29;20057;-87
2021/07/05 06:02:52;;;;;;;19.48;6.65;;;15.40;99.90;;;;;;4845853;29;20057;-84
2021/07/05 06:05:21;;;;;;;18.85;6.28;;;15.50;99.90;;;;;;4846930;29;20046;-84
2021/07/05 06:07:50;;;;;;;20.67;5.70;;;15.50;99.90;;;;;;4843715;29;20057;-85
2021/07/05 06:10:21;;;;;;;14.98;4.88;;;15.60;99.90;;;;;;4845639;29;20042;-87
2021/07/05 06:12:53;;;;;;;13.90;6.25;;;15.60;99.90;;;;;;4842141;29;20046;-85
2021/07/05 06:15:23;;;;;;;17.00;6.07;;;15.20;99.90;;;;;;4826798;29;20069;-86
2021/07/05 06:17:52;;;;;;;17.67;5.72;;;15.60;99.90;;;;;;4839496;29;20054;-88
2021/07/05 06:20:21;;;;;;;13.07;5.85;;;15.60;99.90;;;;;;4843805;29;20050;-88
2021/07/05 06:23:18;;;;;;;9.82;5.03;;;15.70;99.90;;;;;;4848211;29;20050;-91
2021/07/05 06:25:46;;;;;;;19.58;6.07;;;15.70;99.90;;;;;;4846502;29;20058;-86
2021/07/05 06:28:14;;;;;;;11.57;4.18;;;15.90;99.90;;;;;;4829380;29;20050;-86
2021/07/05 06:30:49;;;;;;;13.40;5.18;;;15.80;99.90;;;;;;4833046;29;20058;-85
2021/07/05 06:33:18;;;;;;;18.55;5.03;;;15.80;99.90;;;;;;4837815;29;20050;-85
2021/07/05 06:35:48;;;;;;;13.50;4.50;;;15.80;99.90;;;;;;4843773;29;20054;-87
2021/07/05 06:38:17;;;;;;;16.13;5.32;;;15.90;99.90;;;;;;4842957;29;20053;-87
2021/07/05 06:40:48;;;;;;;8.55;4.70;;;15.50;99.90;;;;;;4843396;29;20045;-87
2021/07/05 06:43:17;;;;;;;18.30;4.37;;;17.00;99.90;;;;;;4842886;29;20428;-86
2021/07/05 06:46:09;;;;;;;15.77;6.90;;;16.00;99.90;;;;;;4840521;29;20050;-88
2021/07/05 06:48:41;;;;;;;10.75;4.40;;;16.00;99.90;;;;;;4829079;29;20050;-85
2021/07/05 06:51:16;;;;;;;18.27;4.20;;;16.00;99.90;;;;;;4833078;29;20062;-87
2021/07/05 06:53:47;;;;;;;12.20;5.60;;;16.00;99.90;;;;;;4832462;29;20504;-90
2021/07/05 06:56:37;;;;;;;11.40;4.85;;;16.10;99.90;;;;;;4853664;29;20084;-92
2021/07/05 06:59:13;;;;;;;11.93;4.13;;;16.00;99.90;;;;;;4855259;29;20402;-91
2021/07/05 07:01:45;;;;;;;14.30;4.90;;;16.10;99.90;;;;;;4843192;29;20053;-91
2021/07/05 07:04:34;;;;;;;17.48;5.28;;;16.10;99.90;;;;;;4839850;29;20072;-92
2021/07/05 07:07:08;;;;;;;14.95;5.05;;;16.30;99.90;;;;;;4811410;29;20062;-92
2021/07/05 07:09:46;;;;;;;20.00;4.57;;;16.30;99.90;;;;;;4847503;29;20049;-92
2021/07/05 07:12:27;;;;;;;8.15;3.40;;;16.50;99.90;;;;;;4838933;29;20054;-93
2021/07/05 07:19:47;;;;;;;14.18;3.70;;;16.70;99.90;;;;;;4838309;29;20061;-92
2021/07/05 07:22:51;;;;;;;17.67;5.93;;;16.40;99.90;;;;;;4817872;29;20061;-92
2021/07/05 07:25:43;;;;;;;11.77;4.47;;;16.80;99.90;;;;;;4838587;29;20060;-91
2021/07/05 07:28:12;;;;;;;15.05;3.95;;;16.70;99.90;;;;;;4833138;29;20422;-90
2021/07/05 07:30:40;;;;;;;13.52;4.63;;;16.80;99.90;;;;;;4824141;29;20049;-91
2021/07/05 07:33:08;;;;;;;10.02;4.65;;;16.90;99.90;;;;;;4828183;29;20069;-90
2021/07/05 07:35:39;;;;;;;13.93;3.63;;;17.00;99.90;;;;;;4832184;29;20069;-92
2021/07/05 07:38:09;;;;;;;8.07;3.53;;;17.10;99.90;;;;;;4832414;29;20769;-92
2021/07/05 07:40:42;;;;;;;18.70;4.47;;;17.20;99.90;;;;;;4817222;29;20046;-92
2021/07/05 07:43:10;;;;;;;13.68;3.83;;;17.30;99.90;;;;;;4827042;29;20066;-91
2021/07/05 07:45:40;;;;;;;8.52;3.80;;;17.30;99.90;;;;;;4801910;29;20065;-91
2021/07/05 07:48:13;;;;;;;18.88;4.25;;;17.40;99.90;;;;;;4818316;29;20057;-92
2021/07/05 07:50:46;;;;;;;5.40;3.03;;;17.50;99.90;;;;;;4837230;29;20056;-92
2021/07/05 07:53:56;;;;;;;15.55;5.18;;;17.20;99.90;;;;;;4851884;29;20050;-93
2021/07/05 07:57:05;;;;;;;9.57;3.33;;;18.60;99.90;;;;;;4852285;29;20068;-92
2021/07/05 07:59:37;;;;;;;7.20;4.85;;;17.90;99.90;;;;;;4819375;29;20070;-92
2021/07/05 08:02:11;;;;;;;10.73;5.63;;;18.00;99.90;;;;;;4813304;29;21061;-91
2021/07/05 08:04:47;;;;;;;12.40;3.53;;;18.10;99.90;;;;;;4819643;29;20070;-90
2021/07/05 08:07:15;;;;;;;10.48;2.75;;;18.10;99.90;;;;;;4826831;29;20046;-90
2021/07/05 08:09:50;;;;;;;9.80;4.57;;;18.20;99.90;;;;;;4829152;29;20055;-90
2021/07/05 08:12:22;;;;;;;9.05;4.35;;;18.10;99.90;;;;;;4830508;29;20065;-91
2021/07/05 08:14:51;;;;;;;8.90;3.15;;;18.10;99.90;;;;;;4825536;29;20050;-90
2021/07/05 08:17:20;;;;;;;14.00;3.60;;;18.10;99.90;;;;;;4830535;29;20050;-92
2021/07/05 08:19:51;;;;;;;10.65;3.22;;;18.20;99.90;;;;;;4832808;29;20076;-93
2021/07/05 08:22:23;;;;;;;8.20;4.25;;;18.30;99.90;;;;;;4817974;29;20558;-92
2021/07/05 08:24:56;;;;;;;10.63;3.35;;;18.40;99.90;;;;;;4822261;29;20058;-91
2021/07/05 08:27:28;;;;;;;15.70;3.97;;;18.30;99.90;;;;;;4821729;29;20053;-92
2021/07/05 08:30:09;;;;;;;8.05;3.53;;;18.80;99.90;;;;;;4821784;29;20495;-91
2021/07/05 08:32:41;;;;;;;5.50;3.13;;;18.40;99.90;;;;;;4820704;29;20049;-88
2021/07/05 08:35:13;;;;;;;8.98;3.30;;;18.40;99.90;;;;;;4832165;29;20065;-91
2021/07/05 08:37:43;;;;;;;11.35;3.70;;;18.40;99.90;;;;;;4833259;29;20053;-91
2021/07/05 08:40:16;;;;;;;11.00;3.47;;;18.50;99.90;;;;;;4836126;29;20062;-92
2021/07/05 08:42:49;;;;;;;20.17;4.80;;;18.50;99.90;;;;;;4826532;29;20054;-91
2021/07/05 08:45:30;;;;;;;13.32;3.58;;;18.50;99.90;;;;;;4836786;29;20057;-91
2021/07/05 08:48:14;;;;;;;5.72;3.00;;;18.60;99.90;;;;;;4820366;29;20078;-91
2021/07/05 08:50:43;;;;;;;8.05;2.70;;;18.50;99.90;;;;;;4815691;29;20054;-91
2021/07/05 08:53:17;;;;;;;7.43;3.10;;;18.70;99.90;;;;;;4826383;29;20050;-91
2021/07/05 08:56:29;;;;;;;8.88;2.67;;;18.60;99.90;;;;;;4836985;29;20065;-91
2021/07/05 08:59:01;;;;;;;10.60;3.00;;;18.30;99.90;;;;;;4817525;29;20418;-91
2021/07/05 09:01:30;;;;;;;14.50;3.60;;;18.70;99.90;;;;;;4832502;29;20061;-91
2021/07/05 09:03:59;;;;;;;10.18;2.65;;;18.80;99.90;;;;;;4818228;29;20619;-92
2021/07/05 09:06:33;;;;;;;9.60;3.08;;;19.00;99.90;;;;;;4815637;29;20061;-90
2021/07/05 09:09:12;;;;;;;7.75;3.63;;;19.20;99.90;;;;;;4800737;29;20088;-90
2021/07/05 09:11:49;;;;;;;8.05;3.35;;;19.30;99.90;;;;;;4788607;29;20053;-91
2021/07/05 09:14:24;;;;;;;8.82;3.03;;;19.80;99.90;;;;;;4816329;29;20054;-92
2021/07/05 09:16:55;;;;;;;9.27;2.97;;;19.60;99.90;;;;;;4818089;29;20448;-91
2021/07/05 09:19:32;;;;;;;6.00;2.55;;;19.60;99.90;;;;;;4831415;29;20046;-91
2021/07/05 09:22:05;;;;;;;4.95;3.30;;;19.60;99.90;;;;;;4805554;29;20065;-90
2021/07/05 09:24:45;;;;;;;6.97;2.78;;;19.60;99.90;;;;;;4807787;29;20058;-92
2021/07/05 09:27:33;;;;;;;11.48;2.55;;;19.70;99.90;;;;;;4825233;29;20050;-92
2021/07/05 09:30:21;;;;;;;9.98;2.70;;;19.80;99.90;;;;;;4847155;29;20058;-91
2021/07/05 09:33:21;;;;;;;8.55;2.90;;;19.90;99.90;;;;;;4817465;29;20065;-89
2021/07/05 09:35:50;;;;;;;;;;;19.90;99.90;;;;;;4841336;29;20050;-91
2021/07/05 09:38:41;;;;;;;7.18;2.20;;;19.80;99.90;;;;;;4830437;29;19925;-91
2021/07/05 09:41:33;;;;;;;9.13;2.58;;;19.90;99.90;;;;;;4832193;29;20057;-88
2021/07/05 09:44:09;;;;;;;9.88;2.42;;;19.70;99.90;;;;;;4818890;29;20060;-89
2021/07/05 09:46:43;;;;;;;12.68;2.30;;;19.70;99.90;;;;;;4848069;29;20053;-90
2021/07/05 09:49:28;;;;;;;4.72;2.08;;;19.40;99.90;;;;;;4846758;29;20430;-88
2021/07/05 09:52:24;;;;;;;5.53;2.30;;;19.80;99.90;;;;;;4844194;29;20042;-90
2021/07/05 09:54:54;;;;;;;;;;;20.00;99.90;;;;;;4828460;29;20625;-91
2021/07/05 09:57:40;;;;;;;6.63;2.80;;;21.00;99.90;;;;;;4840249;29;19924;-89
2021/07/05 10:00:09;;;;;;;7.18;2.60;;;19.90;99.90;;;;;;4803214;29;20047;-91
2021/07/05 10:03:03;;;;;;;8.77;2.65;;;19.90;99.90;;;;;;4807910;29;20057;-92
2021/07/05 10:05:47;;;;;;;4.40;1.92;;;20.00;99.90;;;;;;4827605;29;20064;-90
2021/07/05 10:08:19;;;;;;;6.93;2.30;;;19.00;99.90;;;;;;4827925;29;20061;-90
2021/07/05 10:11:05;;;;;;;11.73;3.72;;;20.00;99.90;;;;;;4814643;29;20050;-89
2021/07/05 10:13:37;;;;;;;8.85;1.98;;;19.90;99.90;;;;;;4827659;29;20061;-90
2021/07/05 10:16:12;;;;;;;5.85;1.90;;;19.90;99.90;;;;;;4825529;29;20136;-92
2021/07/05 10:18:44;;;;;;;7.28;2.17;;;19.90;99.90;;;;;;4828515;29;20061;-92
2021/07/05 10:21:19;;;;;;;6.68;2.10;;;19.80;99.90;;;;;;4844449;29;20058;-91
2021/07/05 10:23:57;;;;;;;7.53;2.20;;;19.90;99.90;;;;;;4828041;29;20069;-90
2021/07/05 10:26:27;;;;;;;4.53;2.13;;;20.10;99.90;;;;;;4821971;29;20054;-90
2021/07/05 10:28:57;;;;;;;5.97;2.10;;;20.20;99.90;;;;;;4825790;29;20066;-90
2021/07/05 10:31:35;;;;;;;7.80;2.92;;;20.30;99.90;;;;;;4818301;29;20066;-90
2021/07/05 10:34:09;;;;;;;6.43;1.70;;;20.40;99.90;;;;;;4828655;29;20053;-91
2021/07/05 10:36:41;;;;;;;4.07;1.23;;;20.50;99.90;;;;;;4830077;29;20517;-92
2021/07/05 10:39:16;;;;;;;7.30;1.70;;;20.50;99.90;;;;;;4816229;29;20050;-91
2021/07/05 10:41:46;;;;;;;5.70;1.88;;;20.60;99.90;;;;;;4839174;24;20057;-82
2021/07/05 10:44:20;;;;;;;8.23;2.38;;;20.60;99.90;;;;;;4848565;29;20062;-82
2021/07/05 10:46:52;;;;;;;6.57;2.25;;;20.70;99.90;;;;;;4868356;29;20049;-82
2021/07/05 10:49:32;;;;;;;7.63;2.30;;;20.70;99.90;;;;;;4864137;29;20213;-82
2021/07/05 10:52:05;;;;;;;5.95;2.47;;;20.90;99.90;;;;;;4861037;29;20042;-82
2021/07/05 10:55:06;;;;;;;4.60;2.00;;;21.10;99.90;;;;;;4857330;29;20061;-82
2021/07/05 10:57:37;;;;;;;4.77;2.20;;;21.40;99.50;;;;;;4840831;29;20066;-82
2021/07/05 11:00:15;;;;;;;3.30;1.58;;;21.60;99.70;;;;;;4859789;29;20045;-82
2021/07/05 11:02:45;;;;;;;5.15;1.73;;;21.80;99.20;;;;;;4863293;29;20046;-82
2021/07/05 11:05:31;;;;;;;6.53;1.85;;;21.80;98.70;;;;;;4862652;29;20510;-81
2021/07/05 11:08:22;;;;;;;6.65;1.98;;;21.70;98.70;;;;;;4859471;29;20068;-82
2021/07/05 11:11:15;;;;;;;11.45;2.60;;;21.60;98.80;;;;;;4867834;29;20054;-81
2021/07/05 11:13:44;;;;;;;10.32;2.17;;;21.50;98.40;;;;;;4857563;29;20045;-82
2021/07/05 11:16:14;;;;;;;5.80;1.75;;;21.30;99.10;;;;;;4862444;29;20060;-82
2021/07/05 11:18:54;;;;;;;10.68;3.22;;;21.30;99.10;;;;;;4844491;29;20061;-82
2021/07/05 11:21:22;;;;;;;3.05;1.40;;;21.40;99.30;;;;;;4845535;29;20050;-82
2021/07/05 11:24:00;;;;;;;5.25;1.98;;;21.50;99.00;;;;;;4847208;29;20054;-81
2021/07/05 11:26:37;;;;;;;6.05;1.52;;;21.50;98.60;;;;;;4841524;29;20053;-82
2021/07/05 11:29:17;;;;;;;3.88;1.50;;;21.70;98.60;;;;;;4848529;29;20060;-82
2021/07/05 11:32:00;;;;;;;5.05;1.75;;;21.80;98.30;;;;;;4845542;29;20083;-82
2021/07/05 11:34:38;;;;;;;1.75;1.17;;;21.80;98.50;;;;;;4844909;29;20053;-82
2021/07/05 11:37:15;;;;;;;7.32;1.98;;;21.80;98.10;;;;;;4842005;29;20051;-82
2021/07/05 11:39:49;;;;;;;4.45;2.08;;;21.80;98.00;;;;;;4845478;29;20046;-82
2021/07/05 11:42:30;;;;;;;9.13;2.38;;;21.60;98.40;;;;;;4849452;29;20061;-82
2021/07/05 11:44:59;;;;;;;;;;;21.50;98.20;;;;;;4859717;29;20058;-82
2021/07/05 11:47:46;;;;;;;5.05;1.10;;;21.50;98.20;;;;;;4842919;29;19924;-82
2021/07/05 11:50:14;;;;;;;7.70;1.40;;;21.40;97.40;;;;;;4829787;29;20049;-82
2021/07/05 11:52:49;;;;;;;3.00;1.17;;;21.30;98.20;;;;;;4846230;29;20057;-82
2021/07/05 11:55:18;;;;;;;6.45;1.48;;;21.30;97.70;;;;;;4846373;29;20068;-81
2021/07/05 11:57:55;;;;;;;5.15;1.88;;;21.40;98.10;;;;;;4850217;29;20061;-82
2021/07/05 12:00:26;;;;;;;4.85;1.80;;;21.50;98.40;;;;;;4843089;29;20046;-81
2021/07/05 12:03:11;;;;;;;2.60;1.15;;;21.70;98.00;;;;;;4834812;29;20065;-82
2021/07/05 12:05:44;;;;;;;1.73;1.10;;;21.90;96.90;;;;;;4846246;29;20042;-81
2021/07/05 12:08:15;;;;;;;3.67;1.20;;;22.10;97.70;;;;;;4843767;29;20046;-82
2021/07/05 12:10:46;;;;;;;2.35;1.02;;;22.30;97.20;;;;;;4835727;29;20039;-82
2021/07/05 12:13:18;;;;;;;2.97;1.42;;;22.50;97.00;;;;;;4849035;29;20050;-82
2021/07/05 12:15:59;;;;;;;9.75;1.80;;;22.80;96.70;;;;;;4851595;29;20157;-82
2021/07/05 12:18:29;;;;;;;1.65;1.15;;;22.90;96.40;;;;;;4842159;29;20282;-81
2021/07/05 12:21:03;;;;;;;5.32;1.45;;;23.10;96.30;;;;;;4818975;29;20050;-82
2021/07/05 12:23:34;;;;;;;2.30;1.00;;;23.30;96.00;;;;;;4834640;29;20054;-82
2021/07/05 12:26:21;;;;;;;5.33;1.43;;;23.40;95.90;;;;;;4837525;29;20412;-82
2021/07/05 12:29:15;;;;;;;2.38;0.98;;;23.60;95.20;;;;;;4842765;29;20297;-82
2021/07/05 12:32:05;;;;;;;4.13;1.35;;;23.60;94.40;;;;;;4843436;29;20076;-82
2021/07/05 12:34:43;;;;;;;3.47;1.10;;;23.50;94.70;;;;;;4830347;29;20058;-81
2021/07/05 12:37:18;;;;;;;5.70;1.55;;;23.50;94.70;;;;;;4842991;29;20046;-82
2021/07/05 12:39:51;;;;;;;3.78;1.60;;;23.20;94.70;;;;;;4856671;29;20050;-81
2021/07/05 12:42:29;;;;;;;4.68;1.10;;;23.10;94.10;;;;;;4830069;29;20051;-82
2021/07/05 12:45:02;;;;;;;3.35;1.02;;;23.10;94.70;;;;;;4843339;29;20050;-83
2021/07/05 12:47:31;;;;;;;4.70;1.77;;;23.20;95.20;;;;;;4837218;29;20050;-81
2021/07/05 12:49:59;;;;;;;3.92;1.23;;;23.20;95.20;;;;;;4837855;29;20058;-82
2021/07/05 12:52:28;;;;;;;6.20;1.45;;;23.20;95.40;;;;;;4857836;29;20046;-82
2021/07/05 12:55:14;;;;;;;3.72;1.85;;;23.20;95.40;;;;;;4839014;29;20054;-81
2021/07/05 12:57:53;;;;;;;2.95;1.08;;;23.30;95.20;;;;;;4835726;29;20069;-82
2021/07/05 13:00:26;;;;;;;2.58;1.17;;;23.40;95.10;;;;;;4834994;29;20050;-82
2021/07/05 13:03:09;;;;;;;5.07;1.40;;;23.50;95.00;;;;;;4818118;29;20069;-81
2021/07/05 13:05:39;;;;;;;1.60;0.90;;;23.70;94.30;;;;;;4831645;29;20631;-80
2021/07/05 13:08:08;;;;;;;1.70;1.05;;;23.90;94.40;;;;;;4834344;29;20062;-81
2021/07/05 13:10:41;;;;;;;7.10;1.95;;;23.90;93.70;;;;;;4844940;29;20073;-80
2021/07/05 13:13:15;;;;;;;5.57;1.20;;;23.90;93.30;;;;;;4840376;29;20058;-81
2021/07/05 13:15:46;;;;;;;4.95;1.23;;;23.90;93.60;;;;;;4844367;29;20047;-81
2021/07/05 13:18:24;;;;;;;3.28;1.05;;;23.90;93.40;;;;;;4857927;29;20054;-81